createdAt,value
2022-10-18T00:00:49.785Z,67.16
2022-10-18T00:03:16.351Z,66.60
2022-10-18T00:05:43.731Z,67.25
2022-10-18T00:08:13.978Z,66.82
2022-10-18T00:10:40.790Z,67.02
2022-10-18T00:13:07.641Z,66.97
2022-10-18T00:15:35.691Z,66.85
2022-10-18T00:18:02.346Z,66.79
2022-10-18T00:20:29.101Z,67.38
2022-10-18T00:22:56.046Z,67.07
2022-10-18T00:25:22.703Z,67.34
2022-10-18T00:27:49.524Z,67.64
2022-10-18T00:30:17.060Z,67.38
2022-10-18T00:32:44.963Z,67.84
2022-10-18T00:35:13.874Z,67.92
2022-10-18T00:37:40.648Z,68.01
2022-10-18T00:40:08.409Z,68.17
2022-10-18T00:42:37.056Z,67.88
2022-10-18T00:45:20.220Z,68.13
2022-10-18T00:47:53.714Z,67.49
2022-10-18T00:50:21.738Z,67.71
2022-10-18T00:52:51.817Z,67.90
2022-10-18T00:55:18.925Z,67.41
2022-10-18T00:57:46.750Z,67.83
2022-10-18T01:00:18.093Z,67.62
2022-10-18T01:02:46.709Z,67.43
2022-10-18T01:05:19.105Z,67.74
2022-10-18T01:08:02.204Z,67.59
2022-10-18T01:10:37.107Z,67.43
2022-10-18T01:13:20.952Z,67.60
2022-10-18T01:15:58.287Z,67.72
2022-10-18T01:18:30.420Z,67.55
2022-10-18T01:21:09.221Z,67.70
2022-10-18T01:24:17.826Z,67.66
2022-10-18T01:27:06.623Z,67.70
2022-10-18T01:29:53.387Z,67.84
2022-10-18T01:32:26.166Z,67.60
2022-10-18T01:34:59.305Z,67.59
2022-10-18T01:37:28.474Z,67.69
2022-10-18T01:39:57.298Z,67.74
2022-10-18T01:42:25.213Z,67.39
2022-10-18T01:44:54.206Z,67.53
2022-10-18T01:47:23.533Z,67.33
2022-10-18T01:49:50.192Z,67.79
2022-10-18T01:52:17.193Z,67.72
2022-10-18T01:54:46.780Z,67.66
2022-10-18T01:57:22.503Z,67.75
2022-10-18T01:59:56.418Z,68.16
2022-10-18T02:02:36.558Z,67.86
2022-10-18T02:05:11.864Z,68.28
2022-10-18T02:07:51.923Z,68.18
2022-10-18T02:10:34.603Z,68.12
2022-10-18T02:13:02.313Z,67.90
2022-10-18T02:15:33.029Z,67.92
2022-10-18T02:18:03.868Z,67.92
2022-10-18T02:20:31.577Z,67.63
2022-10-18T02:23:00.587Z,67.87
2022-10-18T02:25:31.047Z,67.72
2022-10-18T02:27:58.617Z,67.65
2022-10-18T02:30:37.185Z,67.25
2022-10-18T02:33:13.848Z,67.51
2022-10-18T02:35:46.977Z,67.43
2022-10-18T02:38:16.962Z,67.62
2022-10-18T02:40:43.520Z,67.37
2022-10-18T02:43:10.115Z,67.71
2022-10-18T02:45:37.992Z,67.61
2022-10-18T02:48:09.856Z,67.72
2022-10-18T02:50:36.739Z,67.66
2022-10-18T02:53:03.569Z,67.60
2022-10-18T02:55:30.140Z,67.67
2022-10-18T02:57:56.995Z,67.75
2022-10-18T03:00:23.605Z,68.10
2022-10-18T03:02:50.164Z,67.71
2022-10-18T03:05:18.417Z,67.71
2022-10-18T03:07:48.629Z,67.99
2022-10-18T03:10:15.499Z,67.67
2022-10-18T03:12:42.251Z,67.59
2022-10-18T03:15:09.973Z,67.67
2022-10-18T03:17:36.668Z,67.66
2022-10-18T03:20:04.688Z,67.93
2022-10-18T03:22:33.211Z,67.86
2022-10-18T03:24:59.785Z,67.91
2022-10-18T03:27:26.400Z,68.41
2022-10-18T03:29:52.961Z,68.22
2022-10-18T03:32:19.491Z,68.07
2022-10-18T03:34:46.570Z,67.96
2022-10-18T03:37:13.595Z,68.17
2022-10-18T03:39:42.276Z,68.14
2022-10-18T03:42:08.836Z,67.91
2022-10-18T03:44:37.392Z,68.51
2022-10-18T03:47:06.648Z,68.07
2022-10-18T03:52:00.611Z,68.49
2022-10-18T03:54:27.154Z,68.35
2022-10-18T03:56:55.523Z,68.66
2022-10-18T03:59:22.778Z,68.20
2022-10-18T04:01:49.451Z,68.16
2022-10-18T04:04:17.652Z,68.32
2022-10-18T04:06:45.204Z,68.42
2022-10-18T04:09:12.707Z,68.27
2022-10-18T04:11:39.309Z,68.36
2022-10-18T04:14:07.390Z,68.56
2022-10-18T04:16:34.066Z,68.55
2022-10-18T04:19:01.818Z,68.33
2022-10-18T04:21:28.410Z,68.14
2022-10-18T04:23:55.257Z,68.04
2022-10-18T04:26:21.788Z,68.04
2022-10-18T04:28:48.707Z,68.37
2022-10-18T04:31:17.488Z,68.19
2022-10-18T04:33:44.576Z,68.12
2022-10-18T04:36:12.207Z,68.22
2022-10-18T04:38:38.829Z,67.97
2022-10-18T04:41:05.656Z,67.46
2022-10-18T04:43:32.463Z,68.24
2022-10-18T04:45:59.177Z,68.18
2022-10-18T04:48:27.141Z,68.63
2022-10-18T04:50:55.567Z,68.83
2022-10-18T04:53:23.342Z,68.02
2022-10-18T04:55:50.619Z,67.90
2022-10-18T04:58:17.594Z,68.39
2022-10-18T05:00:44.647Z,68.44
2022-10-18T05:03:13.817Z,68.14
2022-10-18T05:06:00.932Z,68.33
2022-10-18T05:08:29.804Z,68.63
2022-10-18T05:10:56.562Z,68.59
2022-10-18T05:13:23.763Z,68.65
2022-10-18T05:15:51.456Z,68.48
2022-10-18T05:18:27.249Z,68.37
2022-10-18T05:20:55.400Z,68.30
2022-10-18T05:23:22.743Z,68.34
2022-10-18T05:25:50.448Z,68.45
2022-10-18T05:28:45.468Z,68.07
2022-10-18T05:31:05.388Z,68.25
2022-10-18T05:33:32.819Z,68.17
2022-10-18T05:36:01.146Z,68.26
2022-10-18T05:38:28.733Z,68.27
2022-10-18T05:40:56.843Z,68.05
2022-10-18T05:43:25.597Z,68.14
2022-10-18T05:45:52.380Z,67.85
2022-10-18T05:48:19.200Z,67.75
2022-10-18T05:51:13.845Z,67.85
2022-10-18T05:53:40.757Z,68.04
2022-10-18T05:56:07.895Z,67.66
2022-10-18T05:58:35.181Z,68.14
2022-10-18T06:01:03.862Z,68.34
2022-10-18T06:03:31.081Z,67.85
2022-10-18T06:06:01.616Z,68.55
2022-10-18T06:08:29.713Z,68.50
2022-10-18T06:10:59.500Z,67.91
2022-10-18T06:13:26.533Z,67.81
2022-10-18T06:15:56.227Z,68.40
2022-10-18T06:18:22.800Z,68.39
2022-10-18T06:20:49.477Z,68.44
2022-10-18T06:23:16.169Z,67.82
2022-10-18T06:25:45.186Z,68.16
2022-10-18T06:28:12.440Z,68.08
2022-10-18T06:30:39.073Z,68.21
2022-10-18T06:33:05.693Z,68.32
2022-10-18T06:35:32.373Z,68.26
2022-10-18T06:37:58.996Z,68.18
2022-10-18T06:40:26.848Z,67.92
2022-10-18T06:43:05.882Z,67.86
2022-10-18T06:45:37.335Z,68.40
2022-10-18T06:48:04.526Z,68.31
2022-10-18T06:50:31.598Z,67.96
2022-10-18T06:52:58.510Z,67.97
2022-10-18T06:55:25.061Z,68.30
2022-10-18T06:57:54.681Z,67.89
2022-10-18T07:00:21.316Z,67.67
2022-10-18T07:02:47.844Z,67.49
2022-10-18T07:05:14.782Z,67.50
2022-10-18T07:07:41.867Z,67.67
2022-10-18T07:10:12.953Z,67.32
2022-10-18T07:12:42.392Z,67.33
2022-10-18T07:15:10.981Z,67.53
2022-10-18T07:17:37.755Z,66.81
2022-10-18T07:20:07.611Z,67.51
2022-10-18T07:22:34.251Z,67.38
2022-10-18T07:25:00.774Z,66.92
2022-10-18T07:27:27.452Z,67.33
2022-10-18T07:29:54.011Z,67.06
2022-10-18T07:32:22.414Z,67.01
2022-10-18T07:34:49.508Z,66.49
2022-10-18T07:37:16.130Z,65.97
2022-10-18T07:39:42.713Z,65.76
2022-10-18T07:42:09.633Z,65.12
2022-10-18T07:45:03.998Z,64.38
2022-10-18T07:50:46.481Z,63.10
2022-10-18T07:53:13.171Z,63.26
2022-10-18T07:55:39.788Z,63.09
2022-10-18T07:58:06.740Z,62.56
2022-10-18T08:00:33.457Z,62.74
2022-10-18T08:03:02.497Z,63.11
2022-10-18T08:05:29.573Z,64.07
2022-10-18T08:07:56.311Z,64.28
2022-10-18T08:10:23.695Z,64.63
2022-10-18T08:12:53.191Z,64.95
2022-10-18T08:15:19.854Z,65.02
2022-10-18T08:17:46.481Z,65.26
2022-10-18T08:20:29.858Z,65.41
2022-10-18T08:23:00.186Z,64.76
2022-10-18T08:25:27.948Z,64.80
2022-10-18T08:27:54.619Z,64.56
2022-10-18T08:30:21.210Z,64.48
2022-10-18T08:32:48.152Z,63.47
2022-10-18T08:35:16.371Z,63.19
2022-10-18T08:37:43.412Z,63.67
2022-10-18T08:40:12.889Z,64.03
2022-10-18T08:43:01.704Z,63.91
2022-10-18T08:45:41.281Z,63.30
2022-10-18T08:48:19.306Z,63.66
2022-10-18T08:50:49.686Z,63.61
2022-10-18T08:53:24.454Z,63.45
2022-10-18T08:55:54.892Z,63.00
2022-10-18T08:58:24.132Z,63.19
2022-10-18T09:01:01.537Z,62.88
2022-10-18T09:03:48.502Z,62.82
2022-10-18T09:06:23.600Z,62.77
2022-10-18T09:09:07.052Z,62.55
2022-10-18T09:11:47.937Z,62.25
2022-10-18T09:14:28.310Z,62.71
2022-10-18T09:17:06.380Z,63.34
2022-10-18T09:19:50.201Z,63.34
2022-10-18T09:22:19.150Z,62.38
2022-10-18T09:24:52.593Z,61.93
2022-10-18T09:27:22.312Z,61.38
2022-10-18T09:29:59.129Z,61.84
2022-10-18T09:32:46.683Z,62.18
2022-10-18T09:35:16.656Z,62.68
2022-10-18T09:37:48.474Z,62.60
2022-10-18T09:40:20.590Z,62.54
2022-10-18T09:42:57.131Z,61.37
2022-10-18T09:45:28.888Z,59.93
2022-10-18T09:48:04.818Z,60.30
2022-10-18T09:50:37.441Z,60.24
2022-10-18T09:53:16.428Z,59.82
2022-10-18T09:55:56.113Z,60.34
2022-10-18T09:58:24.182Z,62.59
2022-10-18T10:00:53.300Z,62.52
2022-10-18T10:03:20.094Z,62.45
2022-10-18T10:05:47.755Z,62.46
2022-10-18T10:08:15.968Z,61.62
2022-10-18T10:10:46.966Z,60.56
2022-10-18T10:13:16.436Z,58.38
2022-10-18T10:15:46.800Z,57.03
2022-10-18T10:18:21.030Z,57.32
2022-10-18T10:20:53.156Z,57.31
2022-10-18T10:23:25.774Z,58.03
2022-10-18T10:25:54.909Z,57.89
2022-10-18T10:28:26.456Z,58.10
2022-10-18T10:30:53.651Z,56.40
2022-10-18T10:33:33.219Z,55.25
2022-10-18T10:36:01.769Z,54.32
2022-10-18T10:38:31.375Z,53.10
2022-10-18T10:40:59.189Z,52.59
2022-10-18T10:43:43.808Z,52.83
2022-10-18T10:46:13.098Z,52.73
2022-10-18T10:48:49.736Z,53.66
2022-10-18T10:51:27.336Z,54.19
2022-10-18T10:54:02.120Z,54.15
2022-10-18T10:56:34.128Z,52.45
2022-10-18T10:59:09.800Z,53.38
2022-10-18T11:01:36.784Z,53.62
2022-10-18T11:04:24.137Z,55.44
2022-10-18T11:06:59.121Z,55.84
2022-10-18T11:09:45.545Z,56.35
2022-10-18T11:12:25.249Z,56.14
2022-10-18T11:14:59.313Z,55.73
2022-10-18T11:17:32.503Z,56.57
2022-10-18T11:20:18.494Z,56.73
2022-10-18T11:22:57.641Z,56.83
2022-10-18T11:25:40.341Z,55.98
2022-10-18T11:28:15.036Z,55.15
2022-10-18T11:30:55.756Z,55.64
2022-10-18T11:33:56.435Z,56.39
2022-10-18T11:36:24.845Z,57.19
2022-10-18T11:38:57.306Z,55.78
2022-10-18T11:41:51.230Z,53.93
2022-10-18T11:44:27.130Z,53.30
2022-10-18T11:47:05.131Z,54.00
2022-10-18T11:49:49.748Z,54.35
2022-10-18T11:52:27.011Z,54.39
2022-10-18T11:55:18.589Z,54.24
2022-10-18T11:57:54.960Z,52.35
2022-10-18T12:00:32.815Z,52.50
2022-10-18T12:03:14.739Z,53.25
2022-10-18T12:05:44.536Z,53.73
2022-10-18T12:08:15.189Z,53.84
2022-10-18T12:11:00.315Z,54.55
2022-10-18T12:13:38.661Z,53.85
2022-10-18T12:16:08.889Z,53.96
2022-10-18T12:18:37.646Z,52.61
2022-10-18T12:21:06.320Z,52.49
2022-10-18T12:23:42.207Z,51.00
2022-10-18T12:26:11.202Z,49.96
2022-10-18T12:28:49.668Z,48.96
2022-10-18T12:31:24.994Z,49.35
2022-10-18T12:33:55.456Z,49.77
2022-10-18T12:36:47.162Z,50.00
2022-10-18T12:39:32.271Z,49.99
2022-10-18T12:42:19.018Z,50.34
2022-10-18T12:44:49.025Z,50.93
2022-10-18T12:47:24.624Z,50.62
2022-10-18T12:49:59.157Z,51.73
2022-10-18T12:52:27.454Z,51.29
2022-10-18T12:55:04.185Z,49.94
2022-10-18T12:58:02.939Z,50.10
2022-10-18T13:00:53.905Z,50.94
2022-10-18T13:03:53.283Z,50.14
2022-10-18T13:06:20.688Z,49.36
2022-10-18T13:08:47.493Z,51.27
2022-10-18T13:11:32.934Z,51.75
2022-10-18T13:14:29.447Z,52.17
2022-10-18T13:17:11.436Z,53.03
2022-10-18T13:19:58.074Z,52.82
2022-10-18T13:22:51.263Z,54.41
2022-10-18T13:25:22.474Z,53.56
2022-10-18T13:27:56.367Z,53.37
2022-10-18T13:30:45.411Z,52.15
2022-10-18T13:33:33.132Z,51.04
2022-10-18T13:36:01.655Z,51.34
2022-10-18T13:38:59.264Z,50.97
2022-10-18T13:41:30.152Z,50.26
2022-10-18T13:44:24.704Z,51.33
2022-10-18T13:47:34.150Z,50.27
2022-10-18T13:50:34.443Z,50.85
2022-10-18T13:53:29.296Z,50.98
2022-10-18T13:56:30.376Z,50.98
2022-10-18T13:59:19.781Z,50.67
2022-10-18T14:02:04.306Z,50.87
2022-10-18T14:04:46.700Z,51.39
2022-10-18T14:07:18.497Z,50.38
2022-10-18T14:09:52.436Z,51.08
2022-10-18T14:12:29.884Z,51.17
2022-10-18T14:15:03.623Z,51.64
2022-10-18T14:20:20.501Z,51.59
2022-10-18T14:22:53.849Z,51.02
2022-10-18T14:25:26.515Z,49.98
2022-10-18T14:28:06.861Z,50.17
2022-10-18T14:30:35.332Z,49.70
2022-10-18T14:33:02.974Z,49.27
2022-10-18T14:35:34.536Z,49.69
2022-10-18T14:38:03.141Z,49.70
2022-10-18T14:40:34.217Z,50.05
2022-10-18T14:43:10.707Z,50.63
2022-10-18T14:45:37.395Z,50.93
2022-10-18T14:48:14.071Z,51.68
2022-10-18T14:50:41.810Z,51.88
2022-10-18T14:53:17.316Z,52.12
2022-10-18T14:55:52.424Z,51.08
2022-10-18T14:58:21.689Z,52.19
2022-10-18T15:00:48.727Z,51.84
2022-10-18T15:03:17.667Z,51.97
2022-10-18T15:05:55.789Z,51.60
2022-10-18T15:08:26.844Z,50.88
2022-10-18T15:10:53.645Z,51.24
2022-10-18T15:13:21.597Z,50.89
2022-10-18T15:15:48.713Z,50.86
2022-10-18T15:18:21.525Z,50.63
2022-10-18T15:21:07.477Z,50.90
2022-10-18T15:23:36.447Z,50.62
2022-10-18T15:26:06.931Z,50.59
2022-10-18T15:28:39.321Z,50.81
2022-10-18T15:31:06.332Z,51.57
2022-10-18T15:33:33.295Z,51.39
2022-10-18T15:36:08.546Z,51.07
2022-10-18T15:38:36.986Z,50.95
2022-10-18T15:41:23.939Z,51.13
2022-10-18T15:43:50.592Z,51.30
2022-10-18T15:46:31.544Z,51.09
2022-10-18T15:49:27.831Z,51.15
2022-10-18T15:52:24.333Z,51.33
2022-10-18T15:54:52.291Z,51.50
2022-10-18T15:57:19.079Z,51.52
2022-10-18T15:59:52.569Z,51.56
2022-10-18T16:02:20.044Z,51.51
2022-10-18T16:04:47.045Z,51.68
2022-10-18T16:07:14.276Z,52.40
2022-10-18T16:09:41.244Z,52.01
2022-10-18T16:12:09.836Z,52.25
2022-10-18T16:14:37.009Z,52.23
2022-10-18T16:17:06.754Z,52.14
2022-10-18T16:19:34.026Z,51.96
2022-10-18T16:22:05.954Z,52.66
2022-10-18T16:24:33.614Z,52.60
2022-10-18T16:27:00.208Z,52.35
2022-10-18T16:29:28.448Z,52.89
2022-10-18T16:31:55.054Z,53.32
2022-10-18T16:34:21.777Z,54.07
2022-10-18T16:36:48.564Z,54.79
2022-10-18T16:39:17.609Z,54.61
2022-10-18T16:41:44.811Z,54.96
2022-10-18T16:44:11.933Z,54.66
2022-10-18T16:46:40.412Z,54.92
2022-10-18T16:49:07.471Z,55.05
2022-10-18T16:51:34.098Z,55.33
2022-10-18T16:54:00.991Z,55.10
2022-10-18T16:56:32.121Z,55.82
2022-10-18T16:59:03.709Z,56.26
2022-10-18T17:01:31.517Z,56.52
2022-10-18T17:04:00.307Z,57.52
2022-10-18T17:06:29.269Z,57.07
2022-10-18T17:08:56.958Z,56.93
2022-10-18T17:11:28.104Z,56.99
2022-10-18T17:13:55.566Z,56.90
2022-10-18T17:16:25.826Z,56.29
2022-10-18T17:18:53.245Z,56.29
2022-10-18T17:21:22.469Z,56.47
2022-10-18T17:23:49.657Z,57.21
2022-10-18T17:26:30.137Z,56.76
2022-10-18T17:28:58.874Z,57.00
2022-10-18T17:31:26.006Z,57.82
2022-10-18T17:33:53.622Z,57.98
2022-10-18T17:36:22.459Z,57.54
2022-10-18T17:38:51.348Z,57.44
2022-10-18T17:41:25.841Z,57.79
2022-10-18T17:43:52.489Z,57.45
2022-10-18T17:46:19.342Z,57.63
2022-10-18T17:48:48.698Z,57.37
2022-10-18T17:51:19.297Z,57.84
2022-10-18T17:53:49.928Z,57.95
2022-10-18T17:56:17.144Z,58.25
2022-10-18T17:58:43.902Z,58.42
2022-10-18T18:01:13.398Z,58.46
2022-10-18T18:03:40.794Z,58.52
2022-10-18T18:06:16.569Z,58.98
2022-10-18T18:08:43.231Z,58.39
2022-10-18T18:11:12.012Z,58.59
2022-10-18T18:13:41.135Z,58.64
2022-10-18T18:16:15.361Z,58.03
2022-10-18T18:18:44.428Z,58.71
2022-10-18T18:21:11.661Z,59.14
2022-10-18T18:23:38.461Z,59.38
2022-10-18T18:26:05.487Z,59.70
2022-10-18T18:28:34.440Z,59.23
2022-10-18T18:31:06.037Z,59.33
2022-10-18T18:33:32.677Z,59.70
2022-10-18T18:35:59.669Z,60.19
2022-10-18T18:38:27.328Z,59.93
2022-10-18T18:41:03.633Z,60.52
2022-10-18T18:43:30.374Z,60.08
2022-10-18T18:45:59.620Z,60.24
2022-10-18T18:48:26.175Z,60.34
2022-10-18T18:50:52.750Z,60.62
2022-10-18T18:53:19.524Z,60.36
2022-10-18T18:55:52.217Z,60.42
2022-10-18T18:58:18.905Z,60.06
2022-10-18T19:00:46.383Z,61.05
2022-10-18T19:03:17.880Z,60.66
2022-10-18T19:05:45.216Z,60.17
2022-10-18T19:08:11.901Z,60.67
2022-10-18T19:10:38.600Z,60.28
2022-10-18T19:13:05.196Z,60.79
2022-10-18T19:15:31.814Z,60.46
2022-10-18T19:18:01.091Z,60.93
2022-10-18T19:20:29.037Z,60.51
2022-10-18T19:22:58.071Z,60.63
2022-10-18T19:25:26.974Z,60.77
2022-10-18T19:27:53.809Z,60.94
2022-10-18T19:30:20.887Z,60.41
2022-10-18T19:32:47.516Z,60.67
2022-10-18T19:35:14.294Z,60.62
2022-10-18T19:37:42.521Z,60.81
2022-10-18T19:40:10.213Z,61.22
2022-10-18T19:42:37.448Z,61.42
2022-10-18T19:45:05.967Z,62.04
2022-10-18T19:47:32.728Z,62.29
2022-10-18T19:49:59.913Z,62.23
2022-10-18T19:52:26.793Z,62.50
2022-10-18T19:54:55.078Z,62.33
2022-10-18T19:57:21.709Z,62.64
2022-10-18T19:59:48.290Z,62.75
2022-10-18T20:02:15.147Z,62.39
2022-10-18T20:04:42.711Z,62.68
2022-10-18T20:07:09.295Z,63.65
2022-10-18T20:09:35.868Z,63.61
2022-10-18T20:12:06.154Z,63.53
2022-10-18T20:14:32.733Z,63.03
2022-10-18T20:17:00.116Z,64.13
2022-10-18T20:19:27.205Z,63.71
2022-10-18T20:21:55.845Z,64.04
2022-10-18T20:24:22.793Z,64.04
2022-10-18T20:26:49.847Z,64.28
2022-10-18T20:29:18.244Z,64.55
2022-10-18T20:31:44.838Z,64.73
2022-10-18T20:34:12.931Z,64.56
2022-10-18T20:36:40.303Z,64.08
2022-10-18T20:39:07.604Z,64.85
2022-10-18T20:41:36.430Z,64.53
2022-10-18T20:44:06.665Z,64.59
2022-10-18T20:46:36.431Z,64.85
2022-10-18T20:49:04.510Z,64.83
2022-10-18T20:51:31.274Z,65.25
2022-10-18T20:53:59.257Z,65.03
2022-10-18T20:56:27.314Z,65.50
2022-10-18T20:58:56.538Z,65.63
2022-10-18T21:01:25.327Z,65.97
2022-10-18T21:03:55.141Z,65.68
2022-10-18T21:06:24.011Z,66.03
2022-10-18T21:08:53.170Z,65.66
2022-10-18T21:11:19.859Z,66.57
2022-10-18T21:13:51.602Z,66.83
2022-10-18T21:16:18.426Z,66.42
2022-10-18T21:18:45.078Z,66.34
2022-10-18T21:21:15.535Z,66.96
2022-10-18T21:23:42.706Z,66.68
2022-10-18T21:26:14.172Z,65.71
2022-10-18T21:28:41.095Z,66.18
2022-10-18T21:31:10.244Z,66.36
2022-10-18T21:33:37.347Z,66.66
2022-10-18T21:36:04.595Z,65.97
2022-10-18T21:38:32.655Z,66.75
2022-10-18T21:40:59.239Z,66.07
2022-10-18T21:43:26.064Z,66.26
2022-10-18T21:45:57.566Z,66.84
2022-10-18T21:48:24.337Z,66.12
2022-10-18T21:50:51.182Z,66.15
2022-10-18T21:53:17.750Z,66.07
2022-10-18T21:55:46.475Z,65.48
2022-10-18T21:58:15.757Z,66.44
2022-10-18T22:00:42.420Z,66.33
2022-10-18T22:03:10.165Z,66.96
2022-10-18T22:05:36.968Z,67.11
2022-10-18T22:08:04.380Z,66.10
2022-10-18T22:10:31.744Z,66.00
2022-10-18T22:13:00.133Z,66.41
2022-10-18T22:15:27.029Z,66.87
2022-10-18T22:17:53.969Z,66.92
2022-10-18T22:20:20.555Z,66.85
2022-10-18T22:22:47.103Z,66.50
2022-10-18T22:25:13.714Z,66.80
2022-10-18T22:27:40.295Z,66.41
2022-10-18T22:30:09.623Z,66.97
2022-10-18T22:32:36.474Z,66.54
2022-10-18T22:35:03.209Z,67.06
2022-10-18T22:37:29.799Z,66.42
2022-10-18T22:39:57.014Z,66.58
2022-10-18T22:42:23.914Z,67.84
2022-10-18T22:44:50.567Z,67.68
2022-10-18T22:47:19.214Z,68.26
2022-10-18T22:49:46.136Z,67.71
2022-10-18T22:52:12.911Z,68.55
2022-10-18T22:54:39.764Z,67.66
2022-10-18T22:57:06.839Z,68.23
2022-10-18T22:59:33.528Z,68.75
2022-10-18T23:02:01.098Z,68.54
2022-10-18T23:04:29.122Z,69.45
2022-10-18T23:06:55.687Z,67.64
2022-10-18T23:09:22.653Z,68.51
2022-10-18T23:11:49.485Z,67.83
2022-10-18T23:14:17.100Z,68.07
2022-10-18T23:16:44.086Z,67.68
2022-10-18T23:19:14.792Z,67.54
2022-10-18T23:21:43.059Z,67.60
2022-10-18T23:24:09.667Z,67.90
2022-10-18T23:26:36.594Z,68.39
2022-10-18T23:29:03.498Z,69.89
2022-10-18T23:31:32.367Z,69.83
2022-10-18T23:34:01.140Z,69.73
2022-10-18T23:36:28.255Z,70.04
2022-10-18T23:38:56.272Z,69.94
2022-10-18T23:41:23.067Z,70.08
2022-10-18T23:43:50.132Z,70.43
2022-10-18T23:46:17.796Z,69.90
2022-10-18T23:48:45.500Z,70.54
2022-10-18T23:51:12.451Z,70.60
2022-10-18T23:53:39.253Z,70.16
2022-10-18T23:56:10.466Z,70.28
2022-10-18T23:58:37.715Z,69.21
